TMB weather

Kendall-Tamiami Executive Airport
Miami, Florida, United States

Public forecast

Using degrees Fahrenheit for public forecast. Weather courtesy of forecast.io.

Current aviation weather report (METAR) for Kendall-Tamiami Executive Airport

Retrieved 2019/12/11 10:05 UTC (52 minutes ago):

KTMB 111005Z AUTO 33004KT 3SM BR SCT021 SCT025 BKN029 22/22 A3012 RMK AO2 RAE0959 P0000 T02220222

Aviation forecast (TAF) for Kendall-Tamiami Executive Airport

Retrieved 2019/12/11 06:36 UTC (4 hours ago):

TAF KTMB 110534Z 1106/1206 11005KT P6SM SCT020 SCT060 FM111500 12010KT P6SM VCSH SCT025 BKN050 FM120000 06006KT P6SM VCSH SCT025 BKN040